Time;durP1;ratioP1;P1;durP2;ratioP2;P2;SDS_P1;SDS_P2;PMS_P1;PMS_P2;Temp;Humidity;BMP_temperature;BMP_pressure;BME280_temperature;BME280_humidity;BME280_pressure;Samples;Min_cycle;Max_cycle;Signal;HPM_P1;HPM_P2
2022/06/14 00:01:30;;;;;;;7.00;2.47;;;14.00;99.90;;;;;;4935993;29;20183;-81
2022/06/14 00:03:57;;;;;;;15.53;3.70;;;14.00;99.90;;;;;;4935988;29;20177;-81
2022/06/14 00:06:26;;;;;;;8.87;2.20;;;14.00;99.90;;;;;;4936096;29;20183;-81
2022/06/14 00:08:51;;;;;;;5.63;2.63;;;13.90;99.90;;;;;;4935520;29;20431;-81
2022/06/14 00:11:24;;;;;;;4.70;2.87;;;13.90;99.90;;;;;;4935900;29;20486;-81
2022/06/14 00:13:50;;;;;;;9.60;2.77;;;13.80;99.90;;;;;;4935699;29;20202;-81
2022/06/14 00:16:17;;;;;;;8.20;4.53;;;13.80;99.90;;;;;;4935795;29;20490;-79
2022/06/14 00:18:43;;;;;;;7.77;2.70;;;13.80;99.90;;;;;;4935532;29;20517;-81
2022/06/14 00:21:09;;;;;;;3.17;2.37;;;13.80;99.90;;;;;;4935703;29;20419;-81
2022/06/14 00:23:36;;;;;;;3.20;2.90;;;13.70;99.90;;;;;;4935811;29;20950;-81
2022/06/14 00:26:02;;;;;;;8.60;2.47;;;13.70;99.90;;;;;;4935707;29;20418;-80
2022/06/14 00:28:30;;;;;;;5.30;2.80;;;13.70;99.90;;;;;;4935688;29;20931;-80
2022/06/14 00:30:58;;;;;;;4.30;2.70;;;13.70;99.90;;;;;;4935465;29;20542;-80
2022/06/14 00:33:24;;;;;;;3.03;2.37;;;13.70;99.90;;;;;;4935724;29;20437;-80
2022/06/14 00:35:58;;;;;;;5.00;2.97;;;13.70;99.90;;;;;;4935664;29;20427;-79
2022/06/14 00:38:23;;;;;;;9.37;3.37;;;13.70;99.90;;;;;;4935514;29;20614;-79
2022/06/14 00:40:52;;;;;;;4.10;2.80;;;13.70;99.90;;;;;;4938149;29;20498;-80
2022/06/14 00:43:18;;;;;;;8.73;3.07;;;13.70;99.90;;;;;;4939407;29;20246;-79
2022/06/14 00:45:43;;;;;;;6.83;3.03;;;13.60;99.90;;;;;;4939446;29;20433;-80
2022/06/14 00:48:19;;;;;;;6.23;3.07;;;13.60;99.90;;;;;;4939429;29;20419;-80
2022/06/14 00:50:51;;;;;;;9.13;2.87;;;13.60;99.90;;;;;;4939300;29;20544;-77
2022/06/14 00:53:28;;;;;;;5.50;3.13;;;13.70;99.90;;;;;;4939301;29;20429;-77
2022/06/14 00:56:25;;;;;;;8.43;3.47;;;13.70;99.90;;;;;;4939294;29;20431;-78
2022/06/14 00:58:59;;;;;;;4.07;2.70;;;13.80;99.90;;;;;;4933387;29;20486;-79
2022/06/14 01:01:32;;;;;;;4.70;2.30;;;13.70;99.90;;;;;;4939257;29;20505;-77
2022/06/14 01:04:04;;;;;;;4.80;2.70;;;13.70;99.90;;;;;;4938640;29;20443;-79
2022/06/14 01:06:51;;;;;;;6.63;3.40;;;13.70;99.90;;;;;;4937493;29;20431;-77
2022/06/14 01:09:30;;;;;;;6.07;3.30;;;13.70;99.90;;;;;;4938411;29;20427;-77
2022/06/14 01:12:01;;;;;;;5.13;3.13;;;13.70;99.90;;;;;;4938303;29;20438;-79
2022/06/14 01:14:40;;;;;;;5.17;3.57;;;13.70;99.90;;;;;;4938679;29;20926;-79
2022/06/14 01:17:07;;;;;;;6.80;3.30;;;13.70;99.90;;;;;;4938902;29;20426;-78
2022/06/14 01:19:33;;;;;;;5.20;3.03;;;13.60;99.90;;;;;;4938125;29;20443;-78
2022/06/14 01:22:01;;;;;;;9.77;3.40;;;13.60;99.90;;;;;;4938825;29;20447;-78
2022/06/14 01:24:28;;;;;;;4.47;2.73;;;13.50;99.90;;;;;;4938761;29;20215;-78
2022/06/14 04:30:55;;;;;;;6.50;4.50;;;13.10;99.90;;;;;;5773953;23;20498;-75
2022/06/14 04:33:37;;;;;;;10.07;5.17;;;13.10;99.90;;;;;;4935656;29;20514;-78
2022/06/14 04:36:09;;;;;;;10.00;4.67;;;13.10;99.90;;;;;;4935613;29;20473;-81
2022/06/14 04:38:42;;;;;;;8.80;4.37;;;13.10;99.90;;;;;;4935577;29;20474;-82
2022/06/14 04:41:33;;;;;;;11.93;4.70;;;13.20;99.90;;;;;;4935739;29;20430;-84
2022/06/14 04:44:11;;;;;;;10.20;4.50;;;13.30;99.90;;;;;;4935534;29;20430;-83
2022/06/14 04:46:53;;;;;;;9.33;4.63;;;13.30;99.90;;;;;;4934757;29;20472;-80
2022/06/14 04:49:52;;;;;;;9.03;4.13;;;13.40;99.90;;;;;;4934714;29;20854;-81
2022/06/14 04:52:26;;;;;;;7.40;4.13;;;13.40;99.90;;;;;;4934155;29;20427;-83
2022/06/14 04:55:04;;;;;;;7.50;4.97;;;13.40;99.90;;;;;;4933095;29;20437;-78
2022/06/14 04:57:36;;;;;;;9.67;5.77;;;13.50;99.90;;;;;;4934473;29;20430;-78
2022/06/14 05:00:06;;;;;;;8.00;4.40;;;13.50;99.90;;;;;;4934691;29;20482;-81
2022/06/14 05:02:57;;;;;;;9.30;4.60;;;13.60;99.90;;;;;;4934446;29;20424;-79
2022/06/14 05:05:38;;;;;;;12.73;4.60;;;13.60;99.90;;;;;;4934655;29;20847;-79
2022/06/14 05:08:14;;;;;;;6.03;4.70;;;13.70;99.90;;;;;;4934781;29;20450;-79
2022/06/14 05:10:52;;;;;;;15.97;5.30;;;13.80;99.90;;;;;;4934472;29;20427;-78
2022/06/14 05:13:27;;;;;;;9.93;4.93;;;13.90;99.90;;;;;;4934509;29;20435;-79
2022/06/14 05:16:03;;;;;;;8.33;4.50;;;14.00;99.90;;;;;;4934444;29;20435;-79
2022/06/14 05:18:37;;;;;;;17.70;5.00;;;14.00;99.90;;;;;;4935476;29;20849;-79
2022/06/14 05:21:14;;;;;;;5.50;4.60;;;14.10;99.90;;;;;;4946489;29;20441;-79
2022/06/14 05:23:48;;;;;;;5.07;4.53;;;14.20;99.90;;;;;;4945154;28;20532;-78
2022/06/14 05:26:40;;;;;;;9.40;4.90;;;14.30;99.90;;;;;;4942223;28;20442;-79
2022/06/14 05:29:11;;;;;;;6.70;4.80;;;14.40;99.90;;;;;;4946955;29;20445;-80
2022/06/14 05:31:51;;;;;;;8.03;5.13;;;14.50;99.90;;;;;;4945964;29;20900;-78
2022/06/14 05:34:20;;;;;;;11.70;5.47;;;14.60;99.90;;;;;;4944732;29;20498;-77
2022/06/14 05:36:54;;;;;;;9.90;5.10;;;14.70;99.90;;;;;;4944949;29;20466;-77
2022/06/14 05:39:29;;;;;;;9.37;4.90;;;14.80;99.90;;;;;;4945261;29;20964;-76
2022/06/14 05:42:08;;;;;;;11.70;5.23;;;14.90;99.90;;;;;;4942271;29;20952;-76
2022/06/14 05:44:41;;;;;;;12.73;4.90;;;15.00;99.90;;;;;;4936847;29;20423;-77
2022/06/14 05:47:17;;;;;;;5.60;4.20;;;15.10;99.90;;;;;;4938172;29;20946;-77
2022/06/14 05:49:59;;;;;;;9.13;6.17;;;15.20;99.90;;;;;;4938289;29;20474;-77
2022/06/14 05:52:31;;;;;;;6.80;5.10;;;15.20;99.90;;;;;;4938343;29;20418;-77
2022/06/14 05:55:07;;;;;;;10.60;4.80;;;15.30;99.90;;;;;;4938438;29;20766;-77
2022/06/14 05:57:35;;;;;;;11.00;5.53;;;15.40;99.90;;;;;;4938256;29;20925;-77
2022/06/14 06:00:06;;;;;;;17.80;5.00;;;15.50;99.90;;;;;;4938434;29;20510;-77
2022/06/14 06:03:04;;;;;;;12.17;5.77;;;15.60;99.90;;;;;;4939501;29;20418;-77
2022/06/14 06:05:40;;;;;;;9.50;4.80;;;15.70;99.90;;;;;;4938368;29;20845;-78
2022/06/14 06:08:24;;;;;;;10.83;5.77;;;15.80;99.90;;;;;;4938244;29;20433;-78
2022/06/14 06:10:55;;;;;;;9.50;5.13;;;15.90;99.90;;;;;;4937990;29;20426;-78
2022/06/14 06:13:32;;;;;;;14.17;6.10;;;16.00;99.90;;;;;;4937993;29;20427;-78
2022/06/14 06:16:10;;;;;;;10.03;5.30;;;16.00;99.90;;;;;;4937820;29;20442;-78
2022/06/14 06:18:43;;;;;;;9.40;5.10;;;16.10;99.90;;;;;;4937680;29;20511;-77
2022/06/14 06:21:23;;;;;;;11.60;5.30;;;16.20;99.90;;;;;;4936672;29;20427;-78
2022/06/14 06:24:06;;;;;;;15.60;5.70;;;16.30;99.90;;;;;;4937743;29;20791;-78
2022/06/14 06:26:36;;;;;;;22.80;5.47;;;16.30;99.90;;;;;;4937348;29;20911;-76
2022/06/14 06:29:13;;;;;;;8.20;5.40;;;16.40;99.90;;;;;;4937585;29;20430;-77
2022/06/14 06:31:41;;;;;;;12.93;6.43;;;16.50;99.90;;;;;;4937327;29;20466;-77
2022/06/14 06:34:11;;;;;;;12.97;5.67;;;16.50;99.90;;;;;;4936855;29;20813;-76
2022/06/14 06:37:05;;;;;;;14.33;6.03;;;16.60;99.90;;;;;;4936215;29;20427;-76
2022/06/14 06:39:50;;;;;;;12.90;6.10;;;16.60;99.90;;;;;;4936222;29;20474;-77
2022/06/14 06:42:31;;;;;;;9.40;5.20;;;16.60;99.90;;;;;;4936592;29;20453;-77
2022/06/14 06:45:16;;;;;;;8.43;5.13;;;16.70;99.90;;;;;;4936394;29;20435;-77
2022/06/14 06:47:52;;;;;;;16.63;5.60;;;16.80;99.90;;;;;;4935167;29;20958;-77
2022/06/14 06:50:33;;;;;;;11.80;5.80;;;16.80;99.90;;;;;;4936481;29;20458;-78
2022/06/14 06:53:07;;;;;;;7.83;5.60;;;16.90;99.90;;;;;;4936104;29;20918;-77
2022/06/14 06:55:44;;;;;;;11.07;4.70;;;16.90;99.90;;;;;;4936019;29;20785;-77
2022/06/14 06:58:28;;;;;;;9.53;4.67;;;16.90;99.90;;;;;;4936081;29;20484;-77
2022/06/14 07:00:59;;;;;;;18.97;6.30;;;16.90;99.90;;;;;;4935968;29;20426;-77
2022/06/14 07:03:34;;;;;;;8.20;4.80;;;16.80;99.90;;;;;;4936200;29;20423;-77
2022/06/14 07:06:03;;;;;;;11.13;8.27;;;16.70;99.90;;;;;;4936116;29;20786;-77
2022/06/14 07:08:41;;;;;;;15.30;6.07;;;16.70;99.90;;;;;;4935925;29;20435;-78
2022/06/14 07:11:13;;;;;;;13.80;5.30;;;16.60;99.90;;;;;;4935922;29;20427;-77
2022/06/14 07:13:53;;;;;;;18.70;7.43;;;16.60;99.90;;;;;;4935914;29;20430;-77
2022/06/14 07:16:19;;;;;;;9.97;5.63;;;16.60;99.90;;;;;;4935855;29;20429;-77
2022/06/14 07:18:51;;;;;;;17.83;6.90;;;16.70;99.90;;;;;;4935728;29;20479;-77
2022/06/14 07:21:33;;;;;;;11.83;6.17;;;16.80;99.90;;;;;;4935822;29;20470;-78
2022/06/14 07:24:08;;;;;;;13.63;6.00;;;17.00;99.90;;;;;;4935631;29;20437;-78
2022/06/14 07:26:47;;;;;;;10.90;6.63;;;17.10;99.90;;;;;;4935618;29;20430;-76
2022/06/14 07:29:29;;;;;;;11.43;5.70;;;17.40;99.90;;;;;;4935508;29;20514;-75
2022/06/14 07:31:55;;;;;;;8.20;5.40;;;17.60;99.90;;;;;;4935058;29;20990;-75
2022/06/14 07:34:21;;;;;;;9.83;5.47;;;17.70;99.90;;;;;;4935104;29;20471;-76
2022/06/14 07:36:56;;;;;;;12.83;4.83;;;17.70;99.90;;;;;;4935362;29;20247;-75
2022/06/14 07:39:27;;;;;;;5.97;3.63;;;17.80;99.90;;;;;;4935248;29;20484;-78
2022/06/14 07:42:11;;;;;;;14.83;5.80;;;18.20;99.90;;;;;;4935096;29;20431;-78
2022/06/14 07:44:50;;;;;;;9.33;5.50;;;18.60;99.90;;;;;;4935141;29;20955;-78
2022/06/14 07:47:28;;;;;;;10.53;5.07;;;18.70;99.90;;;;;;4935308;29;20566;-78
2022/06/14 07:50:22;;;;;;;14.17;6.63;;;18.90;99.90;;;;;;4934743;29;20475;-77
2022/06/14 07:53:13;;;;;;;7.77;4.60;;;18.70;99.90;;;;;;4933090;29;20443;-78
2022/06/14 07:55:45;;;;;;;16.73;6.90;;;18.70;99.90;;;;;;4935169;29;20789;-78
2022/06/14 07:58:18;;;;;;;8.90;5.97;;;18.70;99.90;;;;;;4935098;29;20486;-77
2022/06/14 08:04:00;;;;;;;16.30;7.43;;;18.50;99.90;;;;;;4935263;29;20457;-77
2022/06/14 08:06:34;;;;;;;11.10;6.50;;;18.30;99.90;;;;;;4935165;29;20486;-76
2022/06/14 08:09:10;;;;;;;13.47;7.93;;;18.20;99.90;;;;;;4935140;29;20427;-76
2022/06/14 08:11:49;;;;;;;9.10;6.40;;;18.20;99.90;;;;;;4934875;29;20430;-74
2022/06/14 08:14:55;;;;;;;17.43;8.27;;;18.20;99.90;;;;;;4934854;29;20431;-74
2022/06/14 08:17:31;;;;;;;9.40;7.00;;;18.10;99.90;;;;;;4934985;29;20423;-78
2022/06/14 08:20:05;;;;;;;14.63;7.07;;;18.00;99.90;;;;;;4934912;29;20968;-78
2022/06/14 08:22:40;;;;;;;15.40;7.90;;;18.00;99.90;;;;;;4934874;29;20439;-78
2022/06/14 08:25:12;;;;;;;12.93;6.00;;;18.10;99.90;;;;;;4934858;29;20946;-78
2022/06/14 08:27:53;;;;;;;16.57;7.43;;;18.10;99.90;;;;;;4940216;29;20554;-78
2022/06/14 08:30:26;;;;;;;10.87;7.10;;;18.30;99.90;;;;;;4939532;29;20442;-78
2022/06/14 08:33:16;;;;;;;9.83;6.77;;;18.40;99.90;;;;;;4941941;28;20538;-78
2022/06/14 08:35:51;;;;;;;13.80;6.03;;;18.50;99.90;;;;;;4950546;29;20807;-78
2022/06/14 08:38:38;;;;;;;10.43;5.80;;;18.60;99.90;;;;;;4954114;28;20477;-77
2022/06/14 08:41:19;;;;;;;14.03;6.13;;;18.60;99.90;;;;;;4954029;29;20472;-78
2022/06/14 08:43:48;;;;;;;12.67;6.20;;;18.60;99.90;;;;;;4953868;29;20821;-77
2022/06/14 08:46:42;;;;;;;10.23;5.73;;;18.60;99.90;;;;;;4953865;28;20425;-78
2022/06/14 08:49:09;;;;;;;10.00;6.30;;;18.50;99.90;;;;;;4954051;29;20433;-78
2022/06/14 08:52:20;;;;;;;10.00;6.20;;;18.50;99.90;;;;;;4926510;28;20530;-78
2022/06/14 08:55:06;;;;;;;8.07;6.43;;;18.50;99.90;;;;;;4900216;29;20438;-78
2022/06/14 08:57:39;;;;;;;10.73;6.53;;;18.50;99.90;;;;;;4924462;29;20465;-78
2022/06/14 09:00:22;;;;;;;9.67;7.13;;;18.50;99.90;;;;;;4925072;29;20459;-78
2022/06/14 09:03:18;;;;;;;8.67;6.70;;;18.60;99.90;;;;;;4929914;29;20435;-79
2022/06/14 09:06:02;;;;;;;10.87;7.30;;;18.60;99.90;;;;;;4944801;29;20441;-78
2022/06/14 09:09:12;;;;;;;12.47;6.27;;;18.70;99.90;;;;;;4943046;29;20948;-77
2022/06/14 09:11:45;;;;;;;9.70;5.87;;;18.70;99.90;;;;;;4922302;29;20996;-78
2022/06/14 09:14:33;;;;;;;9.23;7.50;;;18.80;99.90;;;;;;4945327;29;20437;-77
2022/06/14 09:17:35;;;;;;;10.33;7.03;;;18.80;99.90;;;;;;4944557;29;20437;-78
2022/06/14 09:20:26;;;;;;;8.87;5.90;;;18.80;99.90;;;;;;4944169;29;20461;-78
2022/06/14 09:23:17;;;;;;;7.30;6.60;;;18.80;99.90;;;;;;4944459;29;20440;-78
2022/06/14 09:26:03;;;;;;;12.40;6.83;;;18.80;99.90;;;;;;4944264;29;20482;-78
2022/06/14 09:29:04;;;;;;;8.20;6.03;;;19.00;99.90;;;;;;4943793;29;20435;-80
2022/06/14 09:31:50;;;;;;;7.60;5.27;;;19.20;99.90;;;;;;4949092;29;20457;-78
2022/06/14 09:34:26;;;;;;;14.40;6.47;;;19.50;99.90;;;;;;4945041;28;20446;-78
2022/06/14 09:37:31;;;;;;;11.33;5.57;;;19.50;99.90;;;;;;4945258;29;20802;-78
2022/06/14 09:40:00;;;;;;;11.20;6.17;;;19.40;99.90;;;;;;4954251;29;20520;-78
2022/06/14 09:42:37;;;;;;;10.47;5.00;;;19.60;99.90;;;;;;4948786;29;20433;-78
2022/06/14 09:45:13;;;;;;;7.17;4.70;;;19.50;99.90;;;;;;4937423;29;20450;-79
2022/06/14 09:48:10;;;;;;;13.73;5.00;;;19.50;99.90;;;;;;4951178;29;20937;-78
2022/06/14 09:50:45;;;;;;;12.20;5.20;;;19.60;99.90;;;;;;4944559;29;20538;-79
2022/06/14 09:53:33;;;;;;;10.70;5.53;;;19.50;99.90;;;;;;4945685;29;20507;-79
2022/06/14 09:56:32;;;;;;;9.77;5.83;;;19.60;99.90;;;;;;4943226;29;20443;-78
2022/06/14 09:59:09;;;;;;;11.53;5.13;;;19.60;99.90;;;;;;4939113;29;20891;-80
2022/06/14 10:01:53;;;;;;;9.97;5.03;;;19.70;99.90;;;;;;4936475;29;20419;-80
2022/06/14 10:04:24;;;;;;;13.40;4.90;;;19.60;99.90;;;;;;4938049;29;20435;-80
2022/06/14 10:07:26;;;;;;;8.77;5.30;;;19.70;99.90;;;;;;4937718;29;20467;-79
2022/06/14 10:09:58;;;;;;;11.43;5.93;;;19.60;99.90;;;;;;4937875;29;20433;-79
2022/06/14 10:12:26;;;;;;;12.47;6.03;;;19.50;99.90;;;;;;4937768;29;20930;-79
2022/06/14 10:15:10;;;;;;;9.33;5.27;;;19.50;99.90;;;;;;4937862;29;20491;-79
2022/06/14 10:18:40;;;;;;;11.20;5.57;;;19.30;99.90;;;;;;4937708;29;20446;-79
2022/06/14 10:21:17;;;;;;;7.60;5.73;;;19.50;99.90;;;;;;4860579;29;20449;-79
2022/06/14 10:24:16;;;;;;;6.00;4.60;;;19.60;99.90;;;;;;4937887;29;20438;-79
2022/06/14 10:29:40;;;;;;;10.70;5.80;;;19.50;99.90;;;;;;4937471;29;20494;-78
2022/06/14 10:32:41;;;;;;;10.50;6.10;;;19.70;99.90;;;;;;4937541;29;20473;-77
2022/06/14 10:35:20;;;;;;;9.87;4.20;;;19.80;99.90;;;;;;4937181;29;20461;-77
2022/06/14 10:38:05;;;;;;;5.93;5.33;;;19.90;99.90;;;;;;4937296;29;20524;-80
2022/06/14 10:40:49;;;;;;;9.90;5.80;;;19.90;99.90;;;;;;4937532;29;20928;-78
2022/06/14 10:43:26;;;;;;;9.57;5.80;;;19.80;99.70;;;;;;4937391;29;20426;-79
2022/06/14 10:45:59;;;;;;;6.93;5.17;;;19.90;97.70;;;;;;4937131;29;20837;-80
2022/06/14 10:48:43;;;;;;;12.07;5.37;;;19.90;98.20;;;;;;4937440;29;20430;-80
2022/06/14 10:51:17;;;;;;;10.40;5.73;;;20.00;97.70;;;;;;4937137;29;20430;-78
2022/06/14 10:54:15;;;;;;;5.80;4.60;;;20.20;98.20;;;;;;4937131;29;20421;-79
2022/06/14 10:57:14;;;;;;;8.63;3.60;;;20.30;99.90;;;;;;4937070;29;20780;-79
2022/06/14 10:59:43;;;;;;;10.47;3.90;;;20.40;98.10;;;;;;4936976;29;20574;-80
2022/06/14 11:02:42;;;;;;;7.70;4.67;;;20.50;97.00;;;;;;4937038;29;20425;-79
2022/06/14 11:05:24;;;;;;;11.50;4.80;;;20.60;94.70;;;;;;4951130;29;20441;-82
2022/06/14 11:07:59;;;;;;;9.30;4.93;;;20.70;98.50;;;;;;4956126;28;20627;-80
2022/06/14 11:10:39;;;;;;;8.90;4.50;;;20.60;97.50;;;;;;4955850;29;20453;-81
2022/06/14 11:13:04;;;;;;;11.33;4.87;;;20.80;99.90;;;;;;4956093;29;20430;-80
2022/06/14 11:15:51;;;;;;;8.90;5.77;;;21.00;99.60;;;;;;4955829;29;21013;-79
2022/06/14 11:18:28;;;;;;;11.40;5.37;;;21.00;94.60;;;;;;4955752;28;20225;-79
2022/06/14 11:21:14;;;;;;;9.67;6.07;;;21.10;96.10;;;;;;4955752;29;20424;-79
2022/06/14 11:24:03;;;;;;;12.63;5.37;;;20.60;94.10;;;;;;4955201;28;20429;-81
2022/06/14 11:26:36;;;;;;;10.93;5.90;;;20.80;97.70;;;;;;4955908;28;20450;-81
2022/06/14 11:29:05;;;;;;;5.70;5.07;;;20.90;95.20;;;;;;4955388;28;20778;-82
2022/06/14 11:31:39;;;;;;;10.23;4.73;;;21.00;95.90;;;;;;4953313;29;20990;-81
2022/06/14 11:34:52;;;;;;;6.17;5.00;;;21.10;99.70;;;;;;4955646;28;20422;-79
2022/06/14 11:37:39;;;;;;;11.87;5.50;;;21.10;99.40;;;;;;4877487;29;20441;-79
2022/06/14 11:40:19;;;;;;;9.33;5.10;;;21.40;98.90;;;;;;4950344;28;20488;-77
2022/06/14 11:43:11;;;;;;;9.57;5.13;;;21.60;98.10;;;;;;4955382;28;20422;-78
2022/06/14 11:45:59;;;;;;;10.50;5.80;;;21.80;99.30;;;;;;4955264;29;20788;-79
2022/06/14 11:48:37;;;;;;;10.17;4.97;;;21.70;94.60;;;;;;4955222;28;20421;-78
2022/06/14 11:51:31;;;;;;;7.80;5.17;;;21.90;97.90;;;;;;4955293;28;20521;-78
2022/06/14 11:54:17;;;;;;;9.50;5.30;;;22.00;94.90;;;;;;4955207;28;20458;-78
2022/06/14 11:57:10;;;;;;;8.13;5.37;;;22.10;94.10;;;;;;4955299;28;20426;-79
2022/06/14 11:59:50;;;;;;;10.30;6.00;;;22.30;93.10;;;;;;4955213;28;20492;-79
2022/06/14 12:02:27;;;;;;;11.20;5.00;;;22.10;91.50;;;;;;4955295;28;20434;-78
2022/06/14 12:05:08;;;;;;;7.37;4.93;;;22.20;94.80;;;;;;4955075;29;20430;-79
2022/06/14 12:07:38;;;;;;;6.90;4.90;;;22.20;93.10;;;;;;4955071;28;20917;-79
2022/06/14 12:10:41;;;;;;;22.20;6.57;;;22.40;93.90;;;;;;4955126;28;20942;-80
2022/06/14 12:13:16;;;;;;;8.30;5.23;;;22.50;94.80;;;;;;4955127;28;20422;-82
2022/06/14 12:15:44;;;;;;;8.07;5.00;;;22.70;93.30;;;;;;4955070;29;20432;-79
2022/06/14 12:18:15;;;;;;;9.50;5.50;;;22.80;92.20;;;;;;4955074;29;20498;-77
2022/06/14 12:21:00;;;;;;;8.80;5.97;;;22.70;91.50;;;;;;4955004;28;20434;-79
2022/06/14 12:23:29;;;;;;;7.53;5.43;;;22.40;86.80;;;;;;4953737;29;20998;-79
2022/06/14 12:29:17;;;;;;;11.57;5.60;;;22.80;91.00;;;;;;4955514;29;20599;-87
2022/06/14 12:32:04;;;;;;;9.07;5.40;;;22.90;90.60;;;;;;4954598;29;20981;-78
2022/06/14 12:34:50;;;;;;;12.43;5.70;;;23.00;88.40;;;;;;4954917;28;20440;-84
2022/06/14 12:37:28;;;;;;;8.97;5.03;;;23.10;87.90;;;;;;4959720;28;20438;-94
2022/06/14 12:40:06;;;;;;;6.27;5.03;;;23.10;82.30;;;;;;4958813;29;20484;-79
2022/06/14 12:42:43;;;;;;;4.70;4.20;;;23.20;85.70;;;;;;4958749;28;20436;-82
2022/06/14 12:45:20;;;;;;;10.57;5.60;;;23.30;87.30;;;;;;4958750;29;20452;-81
2022/06/14 12:48:00;;;;;;;15.83;6.10;;;23.30;83.60;;;;;;4958848;28;20446;-87
2022/06/14 12:50:37;;;;;;;9.23;5.20;;;23.30;85.10;;;;;;4958890;29;20417;-90
2022/06/14 12:53:38;;;;;;;8.10;5.63;;;23.40;86.90;;;;;;4959004;28;20484;-90
2022/06/14 12:56:41;;;;;;;14.10;6.20;;;23.50;86.50;;;;;;4958663;29;20496;-86
2022/06/14 12:59:41;;;;;;;12.23;7.07;;;23.60;84.50;;;;;;4946376;28;21039;-80
2022/06/14 13:02:19;;;;;;;10.63;6.80;;;23.70;77.50;;;;;;4958475;29;20440;-81
2022/06/14 13:04:58;;;;;;;9.40;7.13;;;23.60;79.80;;;;;;4958098;28;20512;-81
2022/06/14 13:07:56;;;;;;;9.97;6.90;;;23.50;75.90;;;;;;4958010;28;20951;-80
2022/06/14 13:10:41;;;;;;;13.70;7.00;;;23.50;76.90;;;;;;4950091;28;20458;-81
2022/06/14 13:13:37;;;;;;;12.00;6.13;;;23.60;75.00;;;;;;4943132;28;20793;-79
2022/06/14 13:16:21;;;;;;;13.23;7.07;;;23.40;78.40;;;;;;4938808;29;20418;-84
2022/06/14 13:19:00;;;;;;;10.40;7.43;;;23.50;74.40;;;;;;4937404;29;20565;-86
2022/06/14 13:21:39;;;;;;;9.70;6.17;;;23.20;75.60;;;;;;4944754;29;20803;-84
2022/06/14 13:24:46;;;;;;;13.60;6.40;;;23.30;79.60;;;;;;4929826;29;20784;-83
2022/06/14 13:27:30;;;;;;;12.97;8.03;;;23.50;76.70;;;;;;4905997;29;20530;-83
2022/06/14 13:30:21;;;;;;;8.70;6.23;;;23.70;73.00;;;;;;4937209;29;20445;-82
2022/06/14 13:32:47;;;;;;;9.80;6.00;;;23.70;77.00;;;;;;4938378;29;20510;-82
2022/06/14 13:35:31;;;;;;;11.20;6.50;;;23.60;72.90;;;;;;4930174;29;20428;-85
2022/06/14 13:38:03;;;;;;;26.40;6.50;;;23.70;76.40;;;;;;4930739;29;20215;-81
2022/06/14 13:40:50;;;;;;;8.40;6.73;;;23.70;74.50;;;;;;4932126;29;20533;-81
2022/06/14 13:43:26;;;;;;;10.00;6.43;;;23.90;74.50;;;;;;4930517;29;20665;-82
2022/06/14 13:46:04;;;;;;;16.43;6.23;;;24.00;81.00;;;;;;4938126;29;20426;-84
2022/06/14 13:48:47;;;;;;;18.70;8.27;;;24.20;75.00;;;;;;4938141;29;20426;-84
2022/06/14 13:51:44;;;;;;;10.73;6.60;;;24.30;73.30;;;;;;4938337;29;20435;-84
2022/06/14 13:54:37;;;;;;;10.30;6.93;;;24.30;69.10;;;;;;4938314;29;20498;-81
2022/06/14 13:57:32;;;;;;;10.70;7.60;;;24.20;69.00;;;;;;4938432;29;20482;-79
2022/06/14 14:00:07;;;;;;;11.63;8.23;;;24.10;68.10;;;;;;4947398;29;20482;-77
2022/06/14 14:02:46;;;;;;;14.03;9.33;;;24.10;67.20;;;;;;4957331;28;20437;-77
2022/06/14 14:05:23;;;;;;;8.77;6.17;;;23.90;71.60;;;;;;4941831;28;20529;-88
2022/06/14 14:08:01;;;;;;;10.03;7.07;;;23.90;74.80;;;;;;4943457;29;20431;-78
2022/06/14 14:10:51;;;;;;;11.43;8.00;;;24.00;76.50;;;;;;4940575;29;20518;-78
2022/06/14 14:13:40;;;;;;;12.03;6.97;;;24.20;76.50;;;;;;4937686;29;20982;-78
2022/06/14 14:16:19;;;;;;;7.33;6.67;;;24.30;75.30;;;;;;4936570;29;20518;-78
2022/06/14 14:19:00;;;;;;;8.57;6.70;;;24.30;73.80;;;;;;4937851;29;20466;-78
2022/06/14 14:21:28;;;;;;;9.67;6.37;;;24.40;71.00;;;;;;4937767;29;20443;-78
2022/06/14 14:24:18;;;;;;;13.27;7.20;;;24.50;72.70;;;;;;4937445;29;20770;-78
2022/06/14 14:26:50;;;;;;;11.13;6.77;;;24.60;73.60;;;;;;4937622;29;20427;-78
2022/06/14 14:29:43;;;;;;;11.93;6.80;;;24.80;71.80;;;;;;4937472;29;20538;-78
2022/06/14 14:32:18;;;;;;;8.50;5.33;;;24.90;69.90;;;;;;4937473;29;21061;-78
2022/06/14 14:35:04;;;;;;;9.90;6.37;;;24.90;70.30;;;;;;4937540;29;20439;-78
2022/06/14 14:37:41;;;;;;;10.17;6.53;;;24.80;65.80;;;;;;4937304;29;20514;-78
2022/06/14 14:40:21;;;;;;;11.80;5.13;;;24.70;70.90;;;;;;4937411;29;20441;-78
2022/06/14 14:42:56;;;;;;;11.50;5.80;;;24.90;71.00;;;;;;4937284;29;20423;-81
2022/06/14 14:45:32;;;;;;;7.20;4.60;;;24.60;65.60;;;;;;4937346;29;20418;-81
2022/06/14 14:48:17;;;;;;;8.43;4.50;;;24.70;68.80;;;;;;4937574;29;20839;-81
2022/06/14 14:50:54;;;;;;;10.77;4.80;;;24.70;63.40;;;;;;4937283;29;20513;-81
2022/06/14 14:53:37;;;;;;;11.90;6.33;;;24.80;66.40;;;;;;4937398;29;20423;-81
2022/06/14 14:56:08;;;;;;;9.03;5.13;;;24.70;65.10;;;;;;4937400;29;20922;-81
2022/06/14 14:58:58;;;;;;;7.80;5.73;;;24.80;62.50;;;;;;4936209;29;20466;-81
2022/06/14 15:07:25;;;;;;;12.73;5.10;;;24.60;64.90;;;;;;4937367;29;20486;-81
2022/06/14 15:10:15;;;;;;;8.53;5.63;;;24.50;61.60;;;;;;4936829;29;20431;-80
2022/06/14 15:12:49;;;;;;;10.33;5.40;;;24.40;59.40;;;;;;4936887;29;20423;-79
2022/06/14 15:15:26;;;;;;;5.40;4.00;;;24.50;62.50;;;;;;4936759;29;20548;-80
2022/06/14 15:20:56;;;;;;;7.17;4.70;;;24.70;62.90;;;;;;4936038;29;20942;-73
2022/06/14 15:23:38;;;;;;;8.23;4.90;;;24.60;64.20;;;;;;4936009;29;20441;-78
2022/06/14 15:26:11;;;;;;;13.73;4.43;;;24.70;61.80;;;;;;4935947;29;20507;-80
2022/06/14 15:29:09;;;;;;;5.57;3.73;;;24.80;62.80;;;;;;4935724;29;20465;-82
2022/06/14 15:31:46;;;;;;;8.00;4.87;;;24.70;61.60;;;;;;4893117;29;20489;-84
2022/06/14 15:34:21;;;;;;;8.27;4.87;;;24.90;60.00;;;;;;4936002;29;20824;-82
2022/06/14 15:36:51;;;;;;;9.33;3.90;;;24.90;57.30;;;;;;4935682;29;20465;-86
2022/06/14 15:39:22;;;;;;;6.87;4.43;;;24.80;62.30;;;;;;4935664;29;20479;-81
2022/06/14 15:41:50;;;;;;;6.40;4.33;;;24.80;60.40;;;;;;4935354;29;20431;-82
2022/06/14 15:44:24;;;;;;;11.37;4.90;;;24.90;63.30;;;;;;4935530;29;20858;-82
2022/06/14 15:46:55;;;;;;;5.63;3.37;;;24.90;60.20;;;;;;4935295;29;20844;-78
2022/06/14 15:49:28;;;;;;;7.90;4.40;;;24.90;60.60;;;;;;4935219;29;20427;-80
2022/06/14 15:51:56;;;;;;;11.07;4.20;;;24.80;58.50;;;;;;4935448;29;20834;-76
2022/06/14 15:54:30;;;;;;;9.20;3.70;;;24.80;60.50;;;;;;4935388;29;20935;-77
2022/06/14 15:57:15;;;;;;;9.80;5.17;;;24.90;59.80;;;;;;4935281;29;20522;-76
2022/06/14 15:59:44;;;;;;;8.90;4.97;;;25.00;58.40;;;;;;4935218;29;20911;-78
2022/06/14 16:02:53;;;;;;;5.70;3.50;;;25.00;60.90;;;;;;4935049;29;20430;-78
2022/06/14 16:05:27;;;;;;;5.33;3.90;;;25.10;58.80;;;;;;4914994;29;20422;-78
2022/06/14 16:08:00;;;;;;;6.93;4.10;;;25.00;56.50;;;;;;4934885;29;20430;-79
2022/06/14 16:10:33;;;;;;;5.57;3.40;;;25.00;57.30;;;;;;4934824;29;20422;-78
2022/06/14 16:13:10;;;;;;;13.17;3.40;;;24.90;59.70;;;;;;4934944;29;20423;-80
2022/06/14 16:15:38;;;;;;;7.20;3.10;;;25.00;60.00;;;;;;4934972;29;20786;-85
2022/06/14 16:18:28;;;;;;;10.90;3.70;;;25.00;58.70;;;;;;4934844;29;20470;-75
2022/06/14 16:21:12;;;;;;;4.00;3.60;;;25.00;56.50;;;;;;4934809;29;20439;-74
2022/06/14 16:23:41;;;;;;;12.07;3.63;;;25.00;56.00;;;;;;4934941;29;20907;-74
2022/06/14 16:26:38;;;;;;;7.40;3.50;;;25.00;56.40;;;;;;4934840;29;20463;-78
2022/06/14 16:29:33;;;;;;;6.20;3.20;;;24.70;56.30;;;;;;4935015;29;20953;-75
2022/06/14 16:32:15;;;;;;;8.60;3.60;;;24.50;58.20;;;;;;4934871;29;20592;-74
2022/06/14 16:35:17;;;;;;;10.33;4.03;;;24.20;58.00;;;;;;4934886;29;20478;-76
2022/06/14 16:37:55;;;;;;;10.20;3.10;;;24.30;58.50;;;;;;4934692;29;20418;-79
2022/06/14 16:40:31;;;;;;;7.03;3.47;;;24.30;60.00;;;;;;4942621;29;20797;-80
2022/06/14 16:43:15;;;;;;;7.13;3.23;;;24.30;61.10;;;;;;4941538;29;20441;-77
2022/06/14 16:45:56;;;;;;;4.23;2.90;;;24.30;60.10;;;;;;4942602;29;20427;-77
2022/06/14 16:48:34;;;;;;;4.80;2.63;;;24.30;59.70;;;;;;4942999;29;20564;-81
2022/06/14 16:51:18;;;;;;;6.20;2.97;;;24.30;59.40;;;;;;4942334;29;20423;-76
2022/06/14 16:54:01;;;;;;;9.33;3.47;;;24.20;58.80;;;;;;4943100;29;20469;-78
2022/06/14 16:56:35;;;;;;;5.37;3.23;;;24.00;57.20;;;;;;4935998;29;20427;-76
2022/06/14 16:59:23;;;;;;;5.47;2.93;;;24.00;58.80;;;;;;4942265;29;20482;-78
2022/06/14 17:02:09;;;;;;;5.63;2.90;;;24.10;58.20;;;;;;4942971;29;20423;-76
2022/06/14 17:04:58;;;;;;;8.03;2.80;;;24.20;57.50;;;;;;4942278;29;20433;-76
2022/06/14 17:07:53;;;;;;;4.20;2.77;;;24.00;57.90;;;;;;4939049;29;20430;-75
2022/06/14 17:10:40;;;;;;;5.03;2.63;;;23.90;58.40;;;;;;4934709;29;20442;-75